Time;durP1;ratioP1;P1;durP2;ratioP2;P2;SDS_P1;SDS_P2;PMS_P1;PMS_P2;Temp;Humidity;BMP_temperature;BMP_pressure;BME280_temperature;BME280_humidity;BME280_pressure;Samples;Min_cycle;Max_cycle;Signal;HPM_P1;HPM_P2
2022/01/26 00:06:37;;;;;;;105.97;39.85;;;3.90;99.90;;;;;;4930541;28;20043;-79
2022/01/26 00:09:05;;;;;;;109.07;40.63;;;3.90;99.90;;;;;;4916271;28;20082;-79
2022/01/26 00:11:31;;;;;;;116.45;43.78;;;3.90;99.90;;;;;;4942476;28;20109;-81
2022/01/26 00:13:59;;;;;;;114.20;44.05;;;3.90;99.90;;;;;;4914085;28;20184;-79
2022/01/26 00:16:26;;;;;;;116.00;41.72;;;3.90;99.90;;;;;;4914549;28;20039;-80
2022/01/26 00:18:56;;;;;;;115.93;45.05;;;3.90;99.90;;;;;;4937086;28;20172;-79
2022/01/26 00:21:30;;;;;;;107.07;41.03;;;3.90;99.90;;;;;;4924953;28;20047;-79
2022/01/26 00:24:10;;;;;;;103.65;38.17;;;3.90;99.90;;;;;;4937118;28;20100;-79
2022/01/26 00:27:04;;;;;;;107.40;39.88;;;3.90;99.90;;;;;;4933122;28;20070;-78
2022/01/26 00:29:33;;;;;;;103.70;40.47;;;3.90;99.90;;;;;;4912088;28;20055;-79
2022/01/26 00:40:04;;;;;;;109.10;40.53;;;3.90;99.90;;;;;;4926366;28;20112;-79
2022/01/26 00:42:36;;;;;;;102.50;40.15;;;3.80;99.90;;;;;;4907711;28;20438;-79
2022/01/26 00:45:02;;;;;;;113.25;42.72;;;3.90;99.90;;;;;;4935219;28;20391;-79
2022/01/26 00:47:28;;;;;;;118.70;43.72;;;3.90;99.90;;;;;;4916424;28;20518;-79
2022/01/26 00:49:58;;;;;;;117.05;42.50;;;3.80;99.90;;;;;;4908877;28;20067;-79
2022/01/26 00:52:38;;;;;;;104.97;40.83;;;4.30;99.90;;;;;;4912709;28;20526;-79
2022/01/26 00:55:06;;;;;;;106.05;42.35;;;3.80;99.90;;;;;;4917737;28;21262;-78
2022/01/26 00:57:32;;;;;;;116.60;44.85;;;3.80;99.90;;;;;;4929795;28;20132;-80
2022/01/26 00:59:59;;;;;;;119.13;44.85;;;3.80;99.90;;;;;;4932296;28;20442;-79
2022/01/26 01:02:25;;;;;;;118.25;44.88;;;3.80;99.90;;;;;;4913899;28;20126;-79
2022/01/26 01:04:51;;;;;;;114.00;43.30;;;3.80;99.90;;;;;;4924448;28;20101;-81
2022/01/26 01:07:20;;;;;;;115.50;44.13;;;3.90;99.90;;;;;;4911846;28;22102;-79
2022/01/26 01:09:47;;;;;;;120.63;43.83;;;3.90;99.90;;;;;;4928477;28;20137;-82
2022/01/26 01:12:12;;;;;;;109.93;40.67;;;3.80;99.90;;;;;;4902087;28;20051;-80
2022/01/26 01:14:40;;;;;;;117.13;43.15;;;3.80;99.90;;;;;;4909915;28;20043;-79
2022/01/26 01:17:12;;;;;;;116.18;41.85;;;3.80;99.90;;;;;;4927423;28;20066;-78
2022/01/26 01:19:44;;;;;;;111.22;43.72;;;4.10;99.90;;;;;;4915085;28;20070;-78
2022/01/26 01:22:36;;;;;;;123.13;44.83;;;3.80;99.90;;;;;;4913014;28;20595;-78
2022/01/26 01:25:42;;;;;;;108.72;43.97;;;3.80;99.90;;;;;;4919902;28;20043;-79
2022/01/26 01:28:11;;;;;;;101.18;37.90;;;3.90;99.90;;;;;;4925843;28;20054;-79
2022/01/26 01:30:41;;;;;;;109.68;42.97;;;3.90;99.90;;;;;;4923089;28;20051;-79
2022/01/26 01:33:09;;;;;;;114.10;45.97;;;3.80;99.90;;;;;;4920660;28;20040;-79
2022/01/26 01:35:38;;;;;;;111.13;43.97;;;3.80;99.90;;;;;;4933264;28;20542;-79
2022/01/26 01:38:19;;;;;;;105.78;44.90;;;3.90;99.90;;;;;;4927795;28;20088;-78
2022/01/26 01:40:48;;;;;;;100.85;43.13;;;4.20;99.90;;;;;;4929442;28;20063;-79
2022/01/26 01:43:16;;;;;;;101.82;44.58;;;3.80;99.90;;;;;;4928292;28;20097;-80
2022/01/26 01:45:49;;;;;;;105.18;43.45;;;3.90;99.90;;;;;;4914191;28;20046;-79
2022/01/26 01:48:19;;;;;;;108.70;48.47;;;3.90;99.90;;;;;;4926698;28;20474;-80
2022/01/26 01:50:47;;;;;;;101.65;46.30;;;4.00;99.90;;;;;;4936423;28;20094;-82
2022/01/26 01:53:15;;;;;;;93.70;43.60;;;3.90;99.90;;;;;;4905407;28;20046;-79
2022/01/26 01:55:48;;;;;;;94.13;42.65;;;3.90;99.90;;;;;;5011134;28;22082;-78
2022/01/26 01:58:15;;;;;;;97.57;44.73;;;4.00;99.90;;;;;;4931728;28;20048;-79
2022/01/26 02:00:41;;;;;;;90.65;42.85;;;3.90;99.90;;;;;;4912524;28;20314;-78
2022/01/26 02:03:07;;;;;;;93.22;43.15;;;3.90;99.90;;;;;;4915188;28;20082;-79
2022/01/26 02:05:33;;;;;;;101.13;44.22;;;3.90;99.90;;;;;;4915097;28;20579;-80
2022/01/26 02:07:59;;;;;;;93.18;42.47;;;3.90;99.90;;;;;;4901800;28;20499;-78
2022/01/26 02:10:28;;;;;;;89.28;40.40;;;3.90;99.90;;;;;;4927682;28;20039;-79
2022/01/26 02:12:56;;;;;;;81.15;39.78;;;3.90;99.90;;;;;;4914816;28;20562;-82
2022/01/26 02:15:28;;;;;;;83.22;39.72;;;3.90;99.90;;;;;;4912558;28;20122;-79
2022/01/26 02:18:17;;;;;;;76.57;37.70;;;3.90;99.90;;;;;;4924126;28;20077;-78
2022/01/26 02:56:23;;;;;;;72.93;37.08;;;3.80;99.90;;;;;;4992897;28;20058;-79
2022/01/26 03:06:49;;;;;;;79.25;38.83;;;3.80;99.90;;;;;;4936926;28;20495;-78
2022/01/26 03:09:20;;;;;;;80.63;39.83;;;3.80;99.90;;;;;;4900699;28;20401;-79
2022/01/26 03:11:47;;;;;;;82.53;38.97;;;3.80;99.90;;;;;;4907662;28;20051;-79
2022/01/26 03:14:29;;;;;;;69.43;37.33;;;3.80;99.90;;;;;;4933498;28;20111;-78
2022/01/26 03:17:05;;;;;;;71.78;35.90;;;3.80;99.90;;;;;;4910352;28;20032;-79
2022/01/26 03:30:01;;;;;;;76.90;37.63;;;3.80;99.90;;;;;;4928120;28;20035;-79
2022/01/26 03:35:18;;;;;;;70.60;34.65;;;3.70;99.90;;;;;;4909053;28;20043;-80
2022/01/26 03:37:55;;;;;;;80.43;38.97;;;3.70;99.90;;;;;;4936070;28;20032;-79
2022/01/26 03:40:30;;;;;;;79.65;36.80;;;3.70;99.90;;;;;;4912803;28;20047;-79
2022/01/26 03:42:57;;;;;;;77.15;36.42;;;3.70;99.90;;;;;;4916058;28;20061;-82
2022/01/26 03:45:23;;;;;;;73.80;34.65;;;3.70;99.90;;;;;;4925751;28;22027;-79
2022/01/26 03:47:48;;;;;;;71.93;35.45;;;3.80;99.90;;;;;;4905596;28;20039;-78
2022/01/26 03:50:14;;;;;;;76.22;37.28;;;3.80;99.90;;;;;;4900595;28;20043;-81
2022/01/26 03:52:40;;;;;;;77.63;37.50;;;3.80;99.90;;;;;;4903140;28;20046;-79
2022/01/26 03:55:05;;;;;;;75.85;36.58;;;3.70;99.90;;;;;;4920290;28;20039;-79
2022/01/26 03:57:31;;;;;;;78.90;35.63;;;3.70;99.90;;;;;;4927174;28;20112;-78
2022/01/26 03:59:57;;;;;;;78.00;36.50;;;3.70;99.90;;;;;;4908609;28;20104;-79
2022/01/26 04:02:23;;;;;;;80.43;37.20;;;3.70;99.90;;;;;;4932710;28;20077;-79
2022/01/26 04:04:55;;;;;;;76.22;36.20;;;3.70;99.90;;;;;;4929413;28;20043;-79
2022/01/26 04:07:21;;;;;;;79.28;35.50;;;3.70;99.90;;;;;;4935922;28;20108;-79
2022/01/26 04:09:46;;;;;;;89.88;35.70;;;3.80;99.90;;;;;;4930340;28;20039;-78
2022/01/26 04:12:12;;;;;;;76.97;32.17;;;3.70;99.90;;;;;;4917442;28;20033;-79
2022/01/26 04:14:38;;;;;;;72.53;33.13;;;3.90;99.90;;;;;;4914039;28;20089;-80
2022/01/26 04:17:04;;;;;;;68.35;33.28;;;3.70;99.90;;;;;;4914063;28;20039;-79
2022/01/26 04:19:33;;;;;;;73.63;32.53;;;3.70;99.90;;;;;;4926617;28;20487;-79
2022/01/26 04:22:26;;;;;;;80.13;32.35;;;3.70;99.90;;;;;;4915012;28;20043;-78
2022/01/26 04:24:50;;;;;;;79.60;33.55;;;3.70;99.90;;;;;;4915506;28;20650;-79
2022/01/26 04:29:49;;;;;;;71.65;30.05;;;3.70;99.90;;;;;;4935810;28;20042;-79
2022/01/26 04:32:16;;;;;;;76.30;32.50;;;3.70;99.90;;;;;;4911523;28;20118;-79
2022/01/26 04:34:42;;;;;;;71.13;31.15;;;3.70;99.90;;;;;;4925900;28;20415;-79
2022/01/26 04:40:06;;;;;;;75.07;29.90;;;3.80;99.90;;;;;;4951468;28;20042;-79
2022/01/26 04:42:57;;;;;;;79.78;32.47;;;3.60;99.90;;;;;;4928448;28;20039;-83
2022/01/26 04:45:23;;;;;;;71.72;31.38;;;3.60;99.90;;;;;;4906974;28;20047;-80
2022/01/26 04:47:49;;;;;;;77.72;31.83;;;3.90;99.90;;;;;;4931178;28;20096;-79
2022/01/26 04:50:14;;;;;;;75.30;30.95;;;3.60;99.90;;;;;;4918258;28;20042;-79
2022/01/26 04:52:41;;;;;;;70.57;30.75;;;3.50;99.90;;;;;;4928350;28;20380;-80
2022/01/26 04:55:07;;;;;;;78.43;31.83;;;3.50;99.90;;;;;;4916427;28;20480;-79
2022/01/26 04:57:33;;;;;;;73.80;29.67;;;3.50;99.90;;;;;;4927877;28;20071;-79
2022/01/26 04:59:58;;;;;;;71.88;31.85;;;3.60;99.90;;;;;;4898720;28;20074;-80
2022/01/26 05:02:24;;;;;;;76.25;33.60;;;3.60;99.90;;;;;;4909937;28;20051;-79
2022/01/26 05:04:50;;;;;;;75.45;32.75;;;3.60;99.90;;;;;;4927189;28;20579;-79
2022/01/26 05:07:15;;;;;;;81.60;32.13;;;3.50;99.90;;;;;;4914861;28;20169;-79
2022/01/26 05:09:41;;;;;;;82.75;32.13;;;3.50;99.90;;;;;;4915181;28;20040;-80
2022/01/26 05:12:09;;;;;;;77.00;32.63;;;3.50;99.90;;;;;;4919230;28;20071;-79
2022/01/26 05:14:35;;;;;;;73.75;31.60;;;3.50;99.90;;;;;;4890018;28;20066;-79
2022/01/26 05:17:01;;;;;;;77.30;30.70;;;3.50;99.90;;;;;;4902133;28;20526;-83
2022/01/26 05:19:26;;;;;;;82.18;31.77;;;3.50;99.90;;;;;;4923642;28;20571;-80
2022/01/26 05:21:52;;;;;;;72.32;29.40;;;3.50;99.90;;;;;;4915386;28;20039;-79
2022/01/26 05:24:18;;;;;;;79.47;32.28;;;3.50;99.90;;;;;;4895612;28;20027;-80
2022/01/26 05:26:44;;;;;;;77.88;33.08;;;3.50;99.90;;;;;;4925872;28;20517;-79
2022/01/26 05:29:09;;;;;;;81.38;31.65;;;3.50;99.90;;;;;;4914874;28;20039;-78
2022/01/26 05:31:35;;;;;;;74.65;31.05;;;3.50;99.90;;;;;;4905931;28;20519;-79
2022/01/26 05:34:01;;;;;;;76.72;31.20;;;3.50;99.90;;;;;;4918098;28;20050;-79
2022/01/26 05:36:26;;;;;;;77.60;30.60;;;3.50;99.90;;;;;;4902852;28;21751;-79
2022/01/26 05:38:52;;;;;;;76.70;31.27;;;3.50;99.90;;;;;;4914015;28;20044;-79
2022/01/26 05:41:18;;;;;;;76.82;31.77;;;3.50;99.90;;;;;;4915820;28;20459;-79
2022/01/26 05:43:43;;;;;;;75.90;32.55;;;3.50;99.90;;;;;;4896569;28;20043;-79
2022/01/26 05:46:26;;;;;;;74.63;29.60;;;3.50;99.90;;;;;;4901487;28;20039;-82
2022/01/26 05:48:53;;;;;;;75.32;32.45;;;3.50;99.90;;;;;;4918425;28;20043;-78
2022/01/26 05:51:19;;;;;;;79.13;31.70;;;3.50;99.90;;;;;;4919653;28;20039;-79
2022/01/26 05:53:44;;;;;;;78.50;32.80;;;3.50;99.90;;;;;;4940597;28;20641;-79
2022/01/26 05:56:10;;;;;;;77.50;31.55;;;3.50;99.90;;;;;;4915554;28;20045;-79
2022/01/26 05:58:36;;;;;;;78.00;33.53;;;3.50;99.90;;;;;;4922691;28;20043;-79
2022/01/26 06:01:03;;;;;;;78.15;33.05;;;3.50;99.90;;;;;;4906686;28;20039;-79
2022/01/26 06:03:30;;;;;;;72.60;30.95;;;3.50;99.90;;;;;;4910303;28;20066;-79
2022/01/26 06:05:56;;;;;;;72.30;30.42;;;3.50;99.90;;;;;;4913737;28;20047;-79
2022/01/26 06:08:23;;;;;;;77.80;32.10;;;3.50;99.90;;;;;;4928177;28;20118;-79
2022/01/26 06:10:50;;;;;;;81.07;32.28;;;3.40;99.90;;;;;;4895403;28;20587;-82
2022/01/26 06:13:16;;;;;;;80.95;31.33;;;3.50;99.90;;;;;;4940942;28;20090;-78
2022/01/26 06:15:41;;;;;;;78.50;32.63;;;3.50;99.90;;;;;;4973551;28;20067;-79
2022/01/26 06:18:08;;;;;;;74.10;31.30;;;3.50;99.90;;;;;;4909724;28;20100;-82
2022/01/26 06:20:34;;;;;;;75.05;32.30;;;3.50;99.90;;;;;;4900181;28;20043;-80
2022/01/26 06:22:59;;;;;;;86.60;35.65;;;3.80;99.90;;;;;;4912501;28;20042;-79
2022/01/26 06:25:27;;;;;;;79.95;32.95;;;3.50;99.90;;;;;;4899338;28;20047;-79
2022/01/26 06:27:55;;;;;;;85.95;35.45;;;3.50;99.90;;;;;;4990516;28;20039;-78
2022/01/26 06:30:23;;;;;;;85.65;33.22;;;3.50;99.90;;;;;;4910404;28;20046;-79
2022/01/26 06:32:50;;;;;;;83.88;36.22;;;3.70;99.90;;;;;;4945562;28;20106;-79
2022/01/26 06:35:16;;;;;;;86.32;37.53;;;3.60;99.90;;;;;;4931152;28;20046;-78
2022/01/26 06:37:43;;;;;;;90.78;38.53;;;3.60;99.90;;;;;;4897492;28;20035;-79
2022/01/26 06:40:09;;;;;;;86.03;39.85;;;3.60;99.90;;;;;;4930973;28;20043;-81
2022/01/26 06:42:51;;;;;;;85.60;37.65;;;3.60;99.90;;;;;;4895631;28;20043;-80
2022/01/26 06:45:19;;;;;;;88.90;41.05;;;3.70;99.90;;;;;;4911183;28;20085;-78
2022/01/26 06:50:18;;;;;;;90.82;39.30;;;3.70;99.90;;;;;;4913510;28;20047;-78
2022/01/26 06:52:46;;;;;;;82.90;37.03;;;3.80;99.90;;;;;;4913120;28;20051;-79
2022/01/26 06:55:12;;;;;;;92.60;42.40;;;3.80;99.90;;;;;;4899761;28;20036;-79
2022/01/26 06:57:38;;;;;;;89.63;39.85;;;3.80;99.90;;;;;;4919172;28;20035;-80
2022/01/26 07:00:05;;;;;;;92.95;41.58;;;4.00;99.90;;;;;;4930725;28;20064;-80
2022/01/26 07:02:31;;;;;;;90.00;40.30;;;3.80;99.90;;;;;;4930237;28;20628;-80
2022/01/26 07:04:56;;;;;;;91.45;40.20;;;4.10;99.90;;;;;;4912849;28;20047;-81
2022/01/26 07:07:22;;;;;;;88.15;41.92;;;3.80;99.90;;;;;;4910498;28;20035;-80
2022/01/26 07:09:48;;;;;;;96.63;43.55;;;3.80;99.90;;;;;;4901321;28;20047;-82
2022/01/26 07:12:13;;;;;;;91.88;42.08;;;3.90;99.90;;;;;;4904892;28;20042;-78
2022/01/26 07:22:49;;;;;;;91.40;41.10;;;3.90;99.90;;;;;;4924743;28;20082;-81
2022/01/26 07:25:20;;;;;;;85.13;41.60;;;3.90;99.90;;;;;;4912618;28;20045;-82
2022/01/26 07:28:05;;;;;;;92.90;40.55;;;4.50;99.90;;;;;;4924101;28;20047;-79
2022/01/26 07:30:54;;;;;;;;;;;;;;;;;;;;;
2022/01/26 07:33:34;;;;;;;89.00;40.50;;;3.90;99.90;;;;;;4945262;28;20075;-82
2022/01/26 07:36:05;;;;;;;82.70;39.03;;;4.00;99.90;;;;;;4899469;28;20031;-80
2022/01/26 07:38:31;;;;;;;88.30;40.10;;;4.00;99.90;;;;;;4918382;28;20240;-83
2022/01/26 07:40:57;;;;;;;84.50;38.67;;;4.40;99.90;;;;;;4931337;28;20039;-80
2022/01/26 07:43:24;;;;;;;76.15;36.50;;;4.60;99.90;;;;;;4931883;28;20077;-80
2022/01/26 07:45:50;;;;;;;72.70;35.67;;;4.00;99.90;;;;;;4920872;28;20057;-79
2022/01/26 07:48:16;;;;;;;75.65;36.10;;;4.00;99.90;;;;;;4920911;28;20111;-79
2022/01/26 07:50:42;;;;;;;74.55;37.67;;;4.00;99.90;;;;;;4908010;28;20106;-79
2022/01/26 07:53:14;;;;;;;71.85;35.53;;;4.00;99.90;;;;;;4928608;28;20042;-80
2022/01/26 07:55:40;;;;;;;75.05;35.78;;;4.00;99.90;;;;;;4920061;28;20051;-80
2022/01/26 07:58:08;;;;;;;75.25;37.25;;;4.00;99.90;;;;;;4919297;28;20042;-82
2022/01/26 08:00:34;;;;;;;71.03;35.30;;;4.10;99.90;;;;;;4932516;28;20046;-80
2022/01/26 08:03:00;;;;;;;76.03;37.80;;;4.10;99.90;;;;;;4951329;28;20039;-83
2022/01/26 08:05:26;;;;;;;79.57;38.40;;;4.40;99.90;;;;;;4920259;28;20098;-80
2022/01/26 08:07:51;;;;;;;78.85;36.35;;;4.10;99.90;;;;;;4936263;28;20415;-81
2022/01/26 08:10:17;;;;;;;74.57;37.47;;;4.70;99.90;;;;;;4933937;28;20043;-82
2022/01/26 08:12:43;;;;;;;79.72;39.50;;;4.10;99.90;;;;;;4915381;28;20043;-85
2022/01/26 08:15:09;;;;;;;76.00;37.15;;;4.40;99.90;;;;;;4928620;28;20035;-80
2022/01/26 08:17:36;;;;;;;74.63;36.17;;;4.10;99.90;;;;;;4923296;28;20040;-81
2022/01/26 08:20:04;;;;;;;82.28;37.63;;;4.10;99.90;;;;;;4926100;28;20054;-80
2022/01/26 08:22:31;;;;;;;79.38;37.20;;;4.20;99.90;;;;;;4923414;28;20074;-80
2022/01/26 08:24:56;;;;;;;84.85;37.97;;;4.20;99.90;;;;;;4955514;28;20054;-80
2022/01/26 08:27:25;;;;;;;77.63;37.90;;;4.40;99.90;;;;;;4940741;28;20039;-80
2022/01/26 08:29:55;;;;;;;77.85;38.63;;;4.20;99.90;;;;;;4923823;28;20059;-80
2022/01/26 08:32:21;;;;;;;75.82;37.47;;;4.20;99.90;;;;;;4930480;28;20637;-80
2022/01/26 08:34:47;;;;;;;82.50;41.40;;;4.20;99.90;;;;;;4929659;28;20046;-80
2022/01/26 08:37:13;;;;;;;79.70;38.92;;;4.20;99.90;;;;;;4926847;28;20036;-79
2022/01/26 08:39:38;;;;;;;80.82;39.63;;;4.20;99.90;;;;;;4907885;28;20047;-79
2022/01/26 08:42:06;;;;;;;83.13;37.47;;;4.20;99.90;;;;;;4932053;28;20049;-82
2022/01/26 08:44:33;;;;;;;75.68;36.75;;;4.20;99.90;;;;;;4957704;28;20496;-80
2022/01/26 08:46:59;;;;;;;82.35;40.10;;;4.20;99.90;;;;;;4924862;28;20032;-80
2022/01/26 08:49:27;;;;;;;85.63;41.58;;;4.20;99.90;;;;;;4929089;28;20050;-80
2022/01/26 08:51:53;;;;;;;82.63;36.97;;;4.20;99.90;;;;;;4921357;28;20051;-79
2022/01/26 08:54:22;;;;;;;81.45;37.30;;;4.30;99.90;;;;;;4935317;28;20073;-80
2022/01/26 08:56:49;;;;;;;79.68;35.25;;;4.30;99.90;;;;;;4914439;28;20050;-80
2022/01/26 08:59:16;;;;;;;83.50;38.47;;;4.30;99.90;;;;;;4977289;28;20035;-79
2022/01/26 09:01:41;;;;;;;80.70;37.95;;;4.50;99.90;;;;;;4921493;28;20043;-82
2022/01/26 09:04:07;;;;;;;81.28;37.72;;;4.70;99.90;;;;;;4917144;28;20043;-81
2022/01/26 09:06:38;;;;;;;83.90;38.65;;;4.30;99.90;;;;;;4928206;28;21520;-80
2022/01/26 09:09:07;;;;;;;82.90;37.40;;;4.30;99.90;;;;;;4918295;28;20082;-82
2022/01/26 09:11:35;;;;;;;81.35;35.33;;;4.30;99.90;;;;;;4930328;28;20090;-80
2022/01/26 09:14:07;;;;;;;70.97;35.15;;;4.30;99.90;;;;;;4906919;28;20039;-79
2022/01/26 09:16:35;;;;;;;76.68;33.85;;;4.40;99.90;;;;;;4911778;28;20043;-80
2022/01/26 09:19:09;;;;;;;71.97;33.92;;;4.40;99.90;;;;;;4916738;28;20045;-81
2022/01/26 09:21:35;;;;;;;70.53;32.40;;;4.30;99.90;;;;;;4910271;28;20043;-81
2022/01/26 09:24:01;;;;;;;75.65;32.97;;;4.90;99.90;;;;;;4920031;28;20641;-82
2022/01/26 09:26:27;;;;;;;71.55;32.45;;;4.50;99.90;;;;;;4916703;28;20114;-81
2022/01/26 09:28:53;;;;;;;70.78;32.40;;;4.40;99.90;;;;;;4898095;28;20726;-82
2022/01/26 09:31:18;;;;;;;71.80;32.60;;;4.80;99.90;;;;;;4910924;28;20036;-81
2022/01/26 09:33:44;;;;;;;65.45;31.42;;;4.40;99.90;;;;;;4924754;28;20721;-80
2022/01/26 09:36:10;;;;;;;68.78;31.85;;;4.40;99.90;;;;;;4929886;28;20035;-83
2022/01/26 09:38:35;;;;;;;66.25;31.00;;;4.40;99.90;;;;;;4897626;28;20085;-80
2022/01/26 09:41:03;;;;;;;65.18;31.67;;;4.40;99.90;;;;;;4924146;28;20043;-80
2022/01/26 09:43:29;;;;;;;64.93;30.65;;;4.40;99.90;;;;;;4919370;28;20070;-81
2022/01/26 09:45:55;;;;;;;60.03;29.85;;;4.50;99.90;;;;;;4924929;28;20452;-80
2022/01/26 09:48:21;;;;;;;60.47;30.60;;;4.50;99.90;;;;;;4917835;28;20039;-81
2022/01/26 09:50:53;;;;;;;68.05;31.15;;;4.50;99.90;;;;;;4915869;28;20074;-79
2022/01/26 09:53:22;;;;;;;64.45;28.88;;;4.40;99.90;;;;;;4927484;28;20039;-80
2022/01/26 09:55:48;;;;;;;68.32;31.00;;;4.60;99.90;;;;;;4896599;28;20068;-80
2022/01/26 09:58:15;;;;;;;67.10;31.77;;;4.50;99.90;;;;;;4915452;28;20067;-80
2022/01/26 10:00:41;;;;;;;69.10;31.55;;;4.50;99.90;;;;;;4892192;28;20043;-80
2022/01/26 10:03:07;;;;;;;57.75;27.77;;;4.50;99.90;;;;;;4927085;28;20074;-79
2022/01/26 10:05:42;;;;;;;63.72;29.95;;;4.80;99.90;;;;;;4924713;28;20047;-82
2022/01/26 10:19:00;;;;;;;65.80;30.67;;;4.50;99.90;;;;;;4988991;28;20050;-80
2022/01/26 10:21:28;;;;;;;69.15;32.40;;;4.80;99.90;;;;;;4906072;28;20062;-83
2022/01/26 10:23:57;;;;;;;68.50;31.10;;;4.60;99.90;;;;;;4919246;28;20126;-82
2022/01/26 10:26:23;;;;;;;70.20;31.95;;;4.60;99.90;;;;;;4911560;28;20071;-82
2022/01/26 10:28:56;;;;;;;73.10;32.05;;;4.60;99.90;;;;;;4930393;28;20046;-80
2022/01/26 10:31:42;;;;;;;68.93;30.90;;;4.60;99.90;;;;;;4910621;28;20047;-81
2022/01/26 10:34:11;;;;;;;66.43;30.48;;;5.00;99.90;;;;;;4928684;28;20318;-79
2022/01/26 10:36:42;;;;;;;64.25;30.38;;;4.60;99.90;;;;;;4932435;28;20055;-82
2022/01/26 10:39:11;;;;;;;64.97;30.60;;;4.60;99.90;;;;;;4931464;28;20118;-80
2022/01/26 10:41:39;;;;;;;63.38;29.83;;;4.70;99.90;;;;;;4913570;28;20287;-82
2022/01/26 10:44:06;;;;;;;69.88;31.23;;;4.70;99.90;;;;;;4925752;28;20050;-80
2022/01/26 10:46:39;;;;;;;74.63;33.40;;;4.70;99.90;;;;;;4917869;28;20085;-80
2022/01/26 10:54:35;;;;;;;71.13;32.45;;;4.70;99.90;;;;;;4931028;28;20074;-82
2022/01/26 10:57:01;;;;;;;70.15;31.75;;;4.70;99.90;;;;;;4987062;22;20046;-57
2022/01/26 10:59:26;;;;;;;78.30;33.55;;;4.70;99.90;;;;;;4975689;28;20060;-58
2022/01/26 11:01:53;;;;;;;66.68;32.78;;;5.10;99.90;;;;;;4984224;28;20076;-57
2022/01/26 11:04:19;;;;;;;71.38;32.42;;;4.70;99.90;;;;;;5003614;28;20053;-57
2022/01/26 11:06:51;;;;;;;73.13;34.13;;;4.70;99.90;;;;;;5000046;28;20076;-57
2022/01/26 11:09:21;;;;;;;74.68;34.97;;;4.70;99.90;;;;;;5020640;27;20499;-58
2022/01/26 11:11:57;;;;;;;78.57;32.88;;;4.70;99.90;;;;;;5002347;27;20045;-56
2022/01/26 11:14:23;;;;;;;74.38;32.47;;;4.70;99.90;;;;;;4993388;28;20038;-57
2022/01/26 11:17:09;;;;;;;73.70;33.22;;;4.70;99.90;;;;;;5005833;28;20901;-55
2022/01/26 11:19:41;;;;;;;69.72;32.78;;;4.80;99.90;;;;;;4996451;28;20041;-60
2022/01/26 11:22:08;;;;;;;70.72;32.38;;;4.80;99.90;;;;;;4980385;28;20112;-59
2022/01/26 11:24:42;;;;;;;69.32;31.05;;;4.80;99.90;;;;;;5002819;28;20045;-58
2022/01/26 11:27:08;;;;;;;;;;;4.80;99.90;;;;;;4992000;28;20044;-59
2022/01/26 11:29:37;;;;;;;67.80;30.45;;;4.80;99.90;;;;;;4990579;28;20163;-59
2022/01/26 11:32:06;;;;;;;64.78;30.48;;;4.80;99.90;;;;;;5037241;28;20211;-58
2022/01/26 11:34:34;;;;;;;69.13;31.40;;;4.80;99.90;;;;;;4993267;28;20044;-58
2022/01/26 11:37:00;;;;;;;66.70;31.05;;;4.80;99.90;;;;;;4999235;28;20049;-57
2022/01/26 11:45:13;;;;;;;67.13;29.73;;;4.90;99.90;;;;;;4983870;28;20089;-56
2022/01/26 11:47:42;;;;;;;63.10;30.55;;;4.90;99.90;;;;;;4987383;28;20054;-59
2022/01/26 11:50:14;;;;;;;78.57;31.73;;;4.90;99.90;;;;;;5054810;28;20606;-59
2022/01/26 11:52:45;;;;;;;66.55;30.60;;;4.90;99.90;;;;;;4997501;27;20040;-59
2022/01/26 11:55:24;;;;;;;69.90;31.33;;;4.90;99.90;;;;;;5007079;28;20125;-58
2022/01/26 11:57:53;;;;;;;66.63;30.10;;;4.90;99.90;;;;;;5020831;27;20361;-58
2022/01/26 12:00:59;;;;;;;60.70;28.42;;;5.00;99.90;;;;;;4994847;28;20046;-59
2022/01/26 12:03:32;;;;;;;65.00;30.42;;;5.00;99.90;;;;;;4985740;28;20053;-59
2022/01/26 12:06:00;;;;;;;63.80;30.33;;;5.10;99.90;;;;;;5010911;28;20065;-60
2022/01/26 12:08:35;;;;;;;68.45;31.45;;;5.10;99.90;;;;;;4979283;28;20099;-57
2022/01/26 12:11:02;;;;;;;64.43;28.25;;;5.20;99.90;;;;;;5076280;27;20441;-60
2022/01/26 12:13:31;;;;;;;68.15;29.63;;;5.20;99.90;;;;;;4993405;28;21880;-59
2022/01/26 12:16:06;;;;;;;58.17;28.13;;;5.30;99.90;;;;;;4986089;28;20037;-58
2022/01/26 12:35:59;;;;;;;58.38;27.02;;;5.50;99.90;;;;;;4990075;28;20045;-59
2022/01/26 12:38:40;;;;;;;57.95;26.25;;;5.50;99.90;;;;;;4977423;28;20041;-60
2022/01/26 12:43:53;;;;;;;59.15;30.30;;;5.40;99.90;;;;;;5047691;28;20133;-57
2022/01/26 12:46:24;;;;;;;63.42;28.63;;;5.50;99.90;;;;;;5000384;28;20049;-56
2022/01/26 12:48:59;;;;;;;63.20;27.98;;;5.50;99.90;;;;;;4991523;28;20559;-58
2022/01/26 12:51:26;;;;;;;65.72;29.33;;;5.50;99.90;;;;;;4990865;28;20045;-56
2022/01/26 12:53:57;;;;;;;61.95;29.52;;;5.50;99.90;;;;;;4986575;28;20069;-60
2022/01/26 12:56:32;;;;;;;66.55;28.75;;;5.50;99.90;;;;;;4987662;28;20046;-59
2022/01/26 12:59:03;;;;;;;70.30;29.92;;;5.60;99.90;;;;;;4987210;28;20053;-59
2022/01/26 13:01:29;;;;;;;60.15;29.75;;;5.50;99.90;;;;;;4985479;28;20100;-59
2022/01/26 13:03:58;;;;;;;63.58;30.33;;;5.60;99.90;;;;;;4983941;28;20045;-57
2022/01/26 13:06:27;;;;;;;62.55;28.45;;;5.50;99.90;;;;;;4981529;28;20223;-56
2022/01/26 13:09:01;;;;;;;61.42;27.63;;;5.60;99.90;;;;;;4983265;28;20431;-58
2022/01/26 13:11:32;;;;;;;63.00;29.75;;;5.60;99.90;;;;;;4994865;28;20042;-59
2022/01/26 13:14:25;;;;;;;62.00;28.15;;;5.60;99.90;;;;;;5074079;28;20369;-56
2022/01/26 13:17:05;;;;;;;65.95;28.38;;;5.50;99.90;;;;;;4992314;28;20044;-59
2022/01/26 13:35:47;;;;;;;56.90;26.48;;;5.60;99.90;;;;;;4973152;28;20088;-56
2022/01/26 13:52:00;;;;;;;53.13;26.45;;;5.70;99.90;;;;;;4988660;28;20041;-56
2022/01/26 13:54:42;;;;;;;55.60;25.52;;;5.60;99.90;;;;;;4983117;28;20511;-56
2022/01/26 13:59:50;;;;;;;64.57;30.33;;;5.70;99.90;;;;;;4984173;28;20497;-59
2022/01/26 14:02:16;;;;;;;60.38;29.58;;;5.70;99.90;;;;;;4974441;28;20046;-55
2022/01/26 14:04:42;;;;;;;62.13;29.80;;;5.70;99.90;;;;;;4982860;28;20079;-58
2022/01/26 14:07:08;;;;;;;63.00;27.67;;;5.70;99.90;;;;;;5001735;28;20190;-55
2022/01/26 14:09:33;;;;;;;60.78;28.38;;;5.70;99.90;;;;;;4987311;27;20065;-57
2022/01/26 14:12:00;;;;;;;52.22;25.40;;;5.70;99.90;;;;;;5004639;28;20122;-57
2022/01/26 14:14:36;;;;;;;55.25;25.45;;;5.70;99.90;;;;;;4983157;28;20076;-57
2022/01/26 14:17:04;;;;;;;57.35;28.60;;;5.70;99.90;;;;;;4985010;28;20033;-56
2022/01/26 14:19:50;;;;;;;56.83;27.27;;;5.70;99.90;;;;;;4995116;28;20114;-57
2022/01/26 14:22:40;;;;;;;62.92;28.30;;;5.70;99.90;;;;;;4990127;28;20226;-57
2022/01/26 14:27:51;;;;;;;53.40;27.35;;;5.70;99.90;;;;;;4989753;28;20512;-59
2022/01/26 14:50:52;;;;;;;58.75;27.67;;;5.70;99.90;;;;;;4975676;28;20046;-58
2022/01/26 15:34:57;;;;;;;72.25;33.40;;;5.80;99.90;;;;;;4993137;28;20367;-56
2022/01/26 16:06:56;;;;;;;50.90;23.73;;;5.90;99.90;;;;;;5063423;28;20046;-58
2022/01/26 17:47:17;;;;;;;;;;;6.20;99.90;;;;;;5011010;28;20054;-56
2022/01/26 18:33:12;;;;;;;47.45;21.52;;;6.30;99.90;;;;;;5013511;28;20032;-59
2022/01/26 18:49:34;;;;;;;47.00;22.98;;;6.30;99.90;;;;;;4988246;28;20046;-56
2022/01/26 18:52:01;;;;;;;49.80;22.42;;;6.40;99.90;;;;;;5013564;28;20079;-58
2022/01/26 18:54:32;;;;;;;41.10;23.42;;;6.30;99.90;;;;;;4999749;28;20133;-57
2022/01/26 18:57:06;;;;;;;40.45;20.83;;;6.40;99.90;;;;;;5027725;28;20033;-58
2022/01/26 18:59:32;;;;;;;;;;;6.60;99.90;;;;;;5016583;28;20048;-58
2022/01/26 19:01:59;;;;;;;44.05;21.55;;;6.40;99.90;;;;;;5009282;28;19917;-57
2022/01/26 19:04:34;;;;;;;45.72;23.08;;;6.40;99.90;;;;;;5014858;27;20483;-57
2022/01/26 19:07:01;;;;;;;42.13;22.80;;;6.40;99.90;;;;;;5018420;27;20176;-59
2022/01/26 19:09:29;;;;;;;44.75;21.90;;;6.40;99.90;;;;;;5018894;27;20075;-57
2022/01/26 19:11:56;;;;;;;41.20;21.65;;;6.40;99.90;;;;;;5016476;27;20046;-57
2022/01/26 19:14:25;;;;;;;39.70;21.25;;;6.40;99.90;;;;;;5022279;28;20490;-58
2022/01/26 19:25:14;;;;;;;46.33;22.02;;;6.50;99.90;;;;;;4998865;28;20098;-57
2022/01/26 19:27:58;;;;;;;48.67;20.40;;;6.50;99.90;;;;;;5013682;27;20098;-58
2022/01/26 19:46:16;;;;;;;47.25;22.20;;;6.50;99.90;;;;;;5020920;28;20042;-58
2022/01/26 19:51:26;;;;;;;45.97;21.35;;;6.50;99.90;;;;;;5018658;27;20042;-58
2022/01/26 19:53:52;;;;;;;50.67;19.85;;;6.50;99.90;;;;;;5002831;28;20089;-58
2022/01/26 19:56:17;;;;;;;42.80;20.35;;;6.60;99.90;;;;;;5023231;27;20068;-57
2022/01/26 19:58:43;;;;;;;48.70;21.92;;;6.60;99.90;;;;;;5021275;27;20124;-57
2022/01/26 20:01:09;;;;;;;43.00;19.80;;;6.50;99.90;;;;;;5023816;28;20033;-58
2022/01/26 20:03:35;;;;;;;40.95;19.42;;;6.60;99.90;;;;;;5013094;28;20037;-57
2022/01/26 20:06:04;;;;;;;36.50;19.30;;;6.60;99.90;;;;;;5017221;27;20031;-58